Main page
METAR-TAF:

METAR-TAF

Airports :

Avignon – Provence Airport

Avignon, France

latitude: 43-54-26N, longitude: 004-54-07E, elevation: 38 m

Current weather observation

The report was made 33 minutes ago, at 23:30 UTC
Wind 1 kt from the West
Temperature 1°C
Humidity 93%
Pressure 1009 hPa
Visibility: 6000 m

METAR: LFMV 172330Z AUTO 26001KT 6000 NSC 01/00 Q1009

Time: 01:03 (00:03 UTC)

Forecast

The report was made 10 hours and 3 minutes ago, at 14:00 UTC
Forecast valid from 17 at 15 UTC to 18 at 15 UTC
Wind 15 kt from the North/Northwest
Visibility 10 km or more
Broken clouds at a height of 5200 ft
Becoming
from 17 at 17 UTC to 17 at 19 UTC
Wind 10 kt from the North/Northwest
Temporary
from 18 at 00 UTC to 18 at 09 UTC
Visibility: 2500 m
Broken clouds at a height of 700 ft
mist

TAF: LFMV 171400Z 1715/1815 34015KT 9999 BKN052 BECMG 1717/1719 34010KT TEMPO 1800/1809 2500 BR BKN007

Weather observations and forecasts of more than 4000 airports (METAR and TAF reports).

The available stations are represented by yellow and red dots on the map.

Hover mouse over dot to see the name of the station.

Then click to see weather observations and forecasts.

To change the map : click on the green buttons with a black cross to zoom in, on the green button with a dash to zoom out, or on the green arrows for adjacent maps.


METAR-TAF: